createdAt,value
2023-05-18T00:00:11.217Z,8.55
2023-05-18T00:02:38.688Z,8.53
2023-05-18T00:05:06.935Z,8.53
2023-05-18T00:07:34.566Z,8.50
2023-05-18T00:10:02.011Z,8.52
2023-05-18T00:12:29.849Z,8.51
2023-05-18T00:14:57.136Z,8.51
2023-05-18T00:17:24.666Z,8.50
2023-05-18T00:19:52.193Z,8.52
2023-05-18T00:22:19.780Z,8.53
2023-05-18T00:24:48.300Z,8.54
2023-05-18T00:27:15.618Z,8.55
2023-05-18T00:29:43.118Z,8.56
2023-05-18T00:32:12.967Z,8.57
2023-05-18T00:34:40.568Z,8.56
2023-05-18T00:37:08.191Z,8.56
2023-05-18T00:39:38.679Z,8.56
2023-05-18T00:42:07.425Z,8.54
2023-05-18T00:44:34.824Z,8.53
2023-05-18T00:47:02.173Z,8.53
2023-05-18T00:49:29.954Z,8.54
2023-05-18T00:51:57.535Z,8.54
2023-05-18T00:54:26.402Z,8.54
2023-05-18T00:56:54.060Z,8.53
2023-05-18T00:59:22.484Z,8.54
2023-05-18T01:01:50.669Z,8.53
2023-05-18T01:04:18.090Z,8.54
2023-05-18T01:06:46.611Z,8.53
2023-05-18T01:09:15.025Z,8.53
2023-05-18T01:12:18.912Z,8.53
2023-05-18T01:15:09.335Z,8.54
2023-05-18T01:18:05.343Z,8.55
2023-05-18T01:20:39.702Z,8.55
2023-05-18T01:23:15.072Z,8.56
2023-05-18T01:25:54.990Z,8.57
2023-05-18T01:28:30.991Z,8.56
2023-05-18T01:30:59.149Z,8.56
2023-05-18T01:33:26.832Z,8.56
2023-05-18T01:35:57.403Z,8.55
2023-05-18T01:38:27.623Z,8.54
2023-05-18T01:41:21.611Z,8.55
2023-05-18T01:44:04.998Z,8.56
2023-05-18T01:46:40.173Z,8.57
2023-05-18T01:49:17.330Z,8.56
2023-05-18T01:51:47.067Z,8.56
2023-05-18T01:54:17.715Z,8.56
2023-05-18T01:56:45.519Z,8.55
2023-05-18T01:59:14.973Z,8.56
2023-05-18T02:01:42.455Z,8.55
2023-05-18T02:04:10.717Z,8.57
2023-05-18T02:06:38.553Z,8.57
2023-05-18T02:09:07.204Z,8.57
2023-05-18T02:11:34.941Z,8.54
2023-05-18T02:14:02.532Z,8.55
2023-05-18T02:16:30.412Z,8.54
2023-05-18T02:19:00.258Z,8.55
2023-05-18T02:21:27.710Z,8.56
2023-05-18T02:23:55.166Z,8.56
2023-05-18T02:26:23.933Z,8.55
2023-05-18T02:28:54.810Z,8.55
2023-05-18T02:31:22.314Z,8.54
2023-05-18T02:33:49.595Z,8.51
2023-05-18T02:36:18.764Z,8.51
2023-05-18T02:38:46.439Z,8.52
2023-05-18T02:41:13.912Z,8.50
2023-05-18T02:43:41.537Z,8.50
2023-05-18T02:46:09.130Z,8.50
2023-05-18T02:48:36.525Z,8.52
2023-05-18T02:51:03.885Z,8.51
2023-05-18T02:53:32.023Z,8.48
2023-05-18T02:56:04.953Z,8.49
2023-05-18T02:58:44.855Z,8.48
2023-05-18T03:01:27.172Z,8.45
2023-05-18T03:03:57.744Z,8.45
2023-05-18T03:06:27.108Z,8.43
2023-05-18T03:08:57.009Z,8.41
2023-05-18T03:11:32.389Z,8.37
2023-05-18T03:13:59.704Z,8.37
2023-05-18T03:16:28.802Z,8.35
2023-05-18T03:18:59.468Z,8.37
2023-05-18T03:21:38.776Z,8.40
2023-05-18T03:24:07.344Z,8.39
2023-05-18T03:26:38.804Z,8.39
2023-05-18T03:29:06.197Z,8.34
2023-05-18T03:31:33.921Z,8.35
2023-05-18T03:34:03.036Z,8.35
2023-05-18T03:36:33.283Z,8.36
2023-05-18T03:39:00.570Z,8.35
2023-05-18T03:41:29.956Z,8.37
2023-05-18T03:43:57.886Z,8.36
2023-05-18T03:46:25.310Z,8.38
2023-05-18T03:48:54.810Z,8.38
2023-05-18T03:51:29.666Z,8.39
2023-05-18T03:53:57.448Z,8.37
2023-05-18T03:56:25.042Z,8.34
2023-05-18T03:58:52.414Z,8.35
2023-05-18T04:01:19.836Z,8.35
2023-05-18T04:03:47.726Z,8.36
2023-05-18T04:06:15.256Z,8.39
2023-05-18T04:08:43.343Z,8.42
2023-05-18T04:11:11.789Z,8.42
2023-05-18T04:13:41.996Z,8.44
2023-05-18T04:16:13.535Z,8.45
2023-05-18T04:18:41.813Z,8.48
2023-05-18T04:21:09.611Z,8.49
2023-05-18T04:23:38.926Z,8.50
2023-05-18T04:26:07.090Z,8.49
2023-05-18T04:28:38.084Z,8.49
2023-05-18T04:31:06.086Z,8.49
2023-05-18T04:33:34.416Z,8.51
2023-05-18T04:36:05.055Z,8.52
2023-05-18T04:38:34.662Z,8.55
2023-05-18T04:41:06.689Z,8.61
2023-05-18T04:43:34.415Z,8.67
2023-05-18T04:46:02.301Z,8.72
2023-05-18T04:48:30.961Z,8.77
2023-05-18T04:50:58.273Z,8.83
2023-05-18T04:53:27.607Z,8.89
2023-05-18T04:55:55.020Z,8.94
2023-05-18T04:58:22.686Z,9.01
2023-05-18T05:00:50.541Z,9.05
2023-05-18T05:03:18.036Z,9.10
2023-05-18T05:05:45.697Z,9.14
2023-05-18T05:08:13.407Z,9.19
2023-05-18T05:10:40.876Z,9.22
2023-05-18T05:13:10.161Z,9.25
2023-05-18T05:15:37.677Z,9.29
2023-05-18T05:18:05.155Z,9.34
2023-05-18T05:20:32.570Z,9.35
2023-05-18T05:22:59.961Z,9.33
2023-05-18T05:25:28.095Z,9.34
2023-05-18T05:27:55.610Z,9.36
2023-05-18T05:30:23.061Z,9.35
2023-05-18T05:32:50.715Z,9.35
2023-05-18T05:35:18.454Z,9.34
2023-05-18T05:37:46.870Z,9.31
2023-05-18T05:40:15.114Z,9.34
2023-05-18T05:42:45.443Z,9.38
2023-05-18T05:45:13.471Z,9.35
2023-05-18T05:47:49.510Z,9.32
2023-05-18T05:50:18.516Z,9.31
2023-05-18T05:52:47.994Z,9.36
2023-05-18T05:55:15.925Z,9.41
2023-05-18T05:57:43.298Z,9.43
2023-05-18T06:00:13.110Z,9.46
2023-05-18T06:02:51.965Z,9.49
2023-05-18T06:05:31.237Z,9.52
2023-05-18T06:07:59.167Z,9.62
2023-05-18T06:10:26.443Z,9.73
2023-05-18T06:12:54.199Z,9.86
2023-05-18T06:15:25.624Z,9.98
2023-05-18T06:17:53.022Z,10.12
2023-05-18T06:20:20.653Z,10.25
2023-05-18T06:22:48.014Z,10.38
2023-05-18T06:25:22.413Z,10.49
2023-05-18T06:28:15.973Z,10.58
2023-05-18T06:30:49.568Z,10.61
2023-05-18T06:33:23.724Z,10.61
2023-05-18T06:35:51.332Z,10.67
2023-05-18T06:38:18.730Z,10.69
2023-05-18T06:40:48.029Z,10.69
2023-05-18T06:43:15.680Z,10.67
2023-05-18T06:45:48.181Z,10.75
2023-05-18T06:48:27.890Z,10.90
2023-05-18T06:50:56.218Z,10.94
2023-05-18T06:53:23.626Z,10.98
2023-05-18T06:55:51.216Z,11.09
2023-05-18T06:58:18.717Z,11.21
2023-05-18T07:00:49.456Z,11.34
2023-05-18T07:03:17.590Z,11.43
2023-05-18T07:05:45.030Z,11.54
2023-05-18T07:08:12.464Z,11.63
2023-05-18T07:10:40.207Z,11.76
2023-05-18T07:13:07.576Z,11.95
2023-05-18T07:15:35.200Z,12.16
2023-05-18T07:18:03.841Z,12.31
2023-05-18T07:20:31.428Z,12.47
2023-05-18T07:22:58.722Z,12.49
2023-05-18T07:25:26.320Z,12.29
2023-05-18T07:27:54.936Z,12.24
2023-05-18T07:30:23.147Z,12.38
2023-05-18T07:32:51.455Z,12.51
2023-05-18T07:35:22.862Z,12.69
2023-05-18T07:37:52.171Z,12.84
2023-05-18T07:40:20.076Z,12.79
2023-05-18T07:42:47.526Z,12.78
2023-05-18T07:45:14.843Z,12.96
2023-05-18T07:47:42.246Z,13.16
2023-05-18T07:50:10.248Z,13.32
2023-05-18T07:52:37.570Z,13.51
2023-05-18T07:55:05.709Z,13.59
2023-05-18T07:57:35.528Z,13.55
2023-05-18T08:00:06.535Z,13.37
2023-05-18T08:02:40.036Z,13.16
2023-05-18T08:05:09.716Z,12.89
2023-05-18T08:07:37.871Z,12.73
2023-05-18T08:10:06.172Z,12.63
2023-05-18T08:12:33.610Z,12.42
2023-05-18T08:15:00.920Z,12.24
2023-05-18T08:17:28.328Z,11.98
2023-05-18T08:19:57.012Z,11.96
2023-05-18T08:22:24.380Z,12.04
2023-05-18T08:24:52.111Z,12.06
2023-05-18T08:27:20.115Z,12.00
2023-05-18T08:29:47.538Z,12.03
2023-05-18T08:32:15.386Z,12.04
2023-05-18T08:34:44.098Z,12.06
2023-05-18T08:37:11.563Z,12.08
2023-05-18T08:39:39.043Z,12.04
2023-05-18T08:42:12.631Z,12.03
2023-05-18T08:44:52.266Z,12.04
2023-05-18T08:47:25.956Z,12.11
2023-05-18T08:49:56.896Z,12.06
2023-05-18T08:52:28.108Z,11.96
2023-05-18T08:55:00.269Z,11.87
2023-05-18T08:57:32.864Z,11.74
2023-05-18T09:00:01.865Z,11.61
2023-05-18T09:02:29.817Z,11.62
2023-05-18T09:04:58.284Z,11.59
2023-05-18T09:07:27.650Z,11.52
2023-05-18T09:09:56.475Z,11.54
2023-05-18T09:12:24.837Z,11.62
2023-05-18T09:14:53.404Z,11.65
2023-05-18T09:17:22.957Z,11.67
2023-05-18T09:19:50.378Z,11.76
2023-05-18T09:22:18.020Z,11.89
2023-05-18T09:24:45.601Z,12.09
2023-05-18T09:27:13.011Z,12.25
2023-05-18T09:29:55.988Z,12.31
2023-05-18T09:32:24.891Z,12.45
2023-05-18T09:34:53.968Z,12.52
2023-05-18T09:37:22.650Z,12.59
2023-05-18T09:40:08.202Z,12.76
2023-05-18T09:42:41.282Z,12.98
2023-05-18T09:45:23.542Z,13.00
2023-05-18T09:47:51.763Z,13.10
2023-05-18T09:50:25.024Z,13.20
2023-05-18T09:52:52.409Z,13.25
2023-05-18T09:55:20.940Z,13.47
2023-05-18T09:57:50.854Z,13.65
2023-05-18T10:00:22.263Z,13.74
2023-05-18T10:02:52.815Z,13.83
2023-05-18T10:05:28.315Z,13.85
2023-05-18T10:07:56.946Z,13.87
2023-05-18T10:10:27.628Z,13.92
2023-05-18T10:12:55.633Z,14.01
2023-05-18T10:15:23.931Z,14.14
2023-05-18T10:17:55.616Z,14.19
2023-05-18T10:20:26.640Z,14.23
2023-05-18T10:22:56.389Z,14.28
2023-05-18T10:25:26.674Z,14.26
2023-05-18T10:28:00.862Z,14.22
2023-05-18T10:30:28.665Z,14.18
2023-05-18T10:32:58.221Z,14.17
2023-05-18T10:35:28.609Z,14.18
2023-05-18T10:37:59.274Z,14.20
2023-05-18T10:40:28.526Z,14.23
2023-05-18T10:42:58.826Z,14.31
2023-05-18T10:45:26.901Z,14.38
2023-05-18T10:47:55.832Z,14.46
2023-05-18T10:50:23.993Z,14.40
2023-05-18T10:52:52.134Z,14.41
2023-05-18T10:55:20.046Z,14.54
2023-05-18T10:57:52.704Z,14.42
2023-05-18T11:00:20.545Z,14.43
2023-05-18T11:02:50.715Z,14.43
2023-05-18T11:05:25.218Z,14.46
2023-05-18T11:08:05.001Z,14.33
2023-05-18T11:10:48.560Z,14.27
2023-05-18T11:13:16.223Z,14.28
2023-05-18T11:15:56.361Z,14.39
2023-05-18T11:18:46.713Z,14.45
2023-05-18T11:21:21.540Z,14.43
2023-05-18T11:24:21.713Z,14.56
2023-05-18T11:26:50.418Z,14.61
2023-05-18T11:29:18.773Z,14.58
2023-05-18T11:31:48.739Z,14.42
2023-05-18T11:34:49.936Z,14.55
2023-05-18T11:37:38.336Z,14.77
2023-05-18T11:40:13.567Z,14.93
2023-05-18T11:42:41.307Z,14.88
2023-05-18T11:45:11.209Z,14.68
2023-05-18T11:47:41.168Z,14.69
2023-05-18T11:50:12.353Z,14.79
2023-05-18T11:52:51.938Z,14.86
2023-05-18T11:55:21.003Z,14.86
2023-05-18T11:57:53.010Z,14.80
2023-05-18T12:00:21.614Z,14.80
2023-05-18T12:02:49.821Z,14.85
2023-05-18T12:05:17.603Z,14.75
2023-05-18T12:07:52.380Z,14.58
2023-05-18T12:10:21.799Z,14.46
2023-05-18T12:12:53.112Z,14.44
2023-05-18T12:15:25.219Z,14.51
2023-05-18T12:17:52.812Z,14.68
2023-05-18T12:20:22.180Z,14.83
2023-05-18T12:22:53.447Z,14.85
2023-05-18T12:25:25.968Z,14.82
2023-05-18T12:27:54.980Z,14.79
2023-05-18T12:30:24.868Z,14.80
2023-05-18T12:32:57.515Z,14.76
2023-05-18T12:35:26.122Z,14.78
2023-05-18T12:37:58.192Z,14.89
2023-05-18T12:40:26.037Z,14.98
2023-05-18T12:43:00.881Z,14.97
2023-05-18T12:45:36.346Z,14.94
2023-05-18T12:48:10.888Z,14.86
2023-05-18T12:50:53.471Z,14.91
2023-05-18T12:53:20.955Z,15.01
2023-05-18T12:55:59.831Z,14.93
2023-05-18T12:58:29.834Z,14.78
2023-05-18T13:00:57.158Z,14.84
2023-05-18T13:03:24.668Z,14.89
2023-05-18T13:06:09.933Z,14.88
2023-05-18T13:08:38.340Z,14.94
2023-05-18T13:11:14.306Z,14.91
2023-05-18T13:14:06.685Z,14.89
2023-05-18T13:16:37.440Z,14.85
2023-05-18T13:19:10.633Z,14.84
2023-05-18T13:21:38.314Z,14.81
2023-05-18T13:24:06.056Z,14.72
2023-05-18T13:26:34.054Z,14.67
2023-05-18T13:29:02.064Z,14.51
2023-05-18T13:31:33.067Z,14.40
2023-05-18T13:34:05.016Z,14.31
2023-05-18T13:36:35.782Z,14.20
2023-05-18T13:39:07.688Z,14.12
2023-05-18T13:41:36.837Z,14.11
2023-05-18T13:44:04.219Z,14.12
2023-05-18T13:46:32.074Z,14.07
2023-05-18T13:48:59.624Z,13.98
2023-05-18T13:51:26.987Z,13.92
2023-05-18T13:53:54.468Z,13.94
2023-05-18T13:56:22.599Z,13.94
2023-05-18T13:58:50.236Z,13.83
2023-05-18T14:01:18.142Z,13.79
2023-05-18T14:03:45.684Z,13.75
2023-05-18T14:06:13.738Z,13.75
2023-05-18T14:08:41.530Z,13.71
2023-05-18T14:11:09.734Z,13.74
2023-05-18T14:13:40.086Z,13.80
2023-05-18T14:16:08.040Z,13.76
2023-05-18T14:18:36.030Z,13.73
2023-05-18T14:21:04.174Z,13.77
2023-05-18T14:23:31.844Z,13.85
2023-05-18T14:26:02.158Z,13.90
2023-05-18T14:28:31.614Z,13.95
2023-05-18T14:30:59.544Z,13.99
2023-05-18T14:33:27.274Z,13.97
2023-05-18T14:35:56.152Z,13.93
2023-05-18T14:38:26.962Z,13.92
2023-05-18T14:40:54.293Z,13.98
2023-05-18T14:43:22.100Z,13.98
2023-05-18T14:45:56.865Z,13.91
2023-05-18T14:48:38.909Z,13.81
2023-05-18T14:51:06.422Z,13.80
2023-05-18T14:53:37.037Z,13.82
2023-05-18T14:56:06.523Z,13.78
2023-05-18T14:58:33.878Z,13.68
2023-05-18T15:01:01.370Z,13.55
2023-05-18T15:03:29.477Z,13.51
2023-05-18T15:05:56.994Z,13.53
2023-05-18T15:08:24.842Z,13.52
2023-05-18T15:10:52.584Z,13.52
2023-05-18T15:13:20.434Z,13.46
2023-05-18T15:15:48.788Z,13.38
2023-05-18T15:18:16.592Z,13.34
2023-05-18T15:20:44.047Z,13.29
2023-05-18T15:23:11.577Z,13.23
2023-05-18T15:25:42.177Z,13.24
2023-05-18T15:28:11.396Z,13.23
2023-05-18T15:30:38.968Z,13.20
2023-05-18T15:33:06.472Z,13.19
2023-05-18T15:35:34.978Z,13.14
2023-05-18T15:38:03.138Z,13.16
2023-05-18T15:40:31.078Z,13.15
2023-05-18T15:43:00.084Z,13.17
2023-05-18T15:45:27.862Z,13.18
2023-05-18T15:47:55.299Z,13.20
2023-05-18T15:50:22.989Z,13.19
2023-05-18T15:52:50.479Z,13.18
2023-05-18T15:55:18.187Z,13.24
2023-05-18T15:57:45.708Z,13.38
2023-05-18T16:00:14.664Z,13.48
2023-05-18T16:02:42.103Z,13.55
2023-05-18T16:05:16.018Z,13.56
2023-05-18T16:07:43.845Z,13.55
2023-05-18T16:10:11.498Z,13.55
2023-05-18T16:12:38.892Z,13.51
2023-05-18T16:15:06.758Z,13.52
2023-05-18T16:17:34.431Z,13.50
2023-05-18T16:20:03.878Z,13.46
2023-05-18T16:22:31.505Z,13.40
2023-05-18T16:24:59.107Z,13.36
2023-05-18T16:27:26.476Z,13.28
2023-05-18T16:29:54.604Z,13.22
2023-05-18T16:32:21.904Z,13.23
2023-05-18T16:34:49.322Z,13.20
2023-05-18T16:37:17.006Z,13.24
2023-05-18T16:39:44.382Z,13.10
2023-05-18T16:42:12.411Z,12.92
2023-05-18T16:44:40.003Z,12.91
2023-05-18T16:47:07.661Z,12.92
2023-05-18T16:49:34.988Z,12.90
2023-05-18T16:52:02.293Z,12.87
2023-05-18T16:54:29.887Z,12.82
2023-05-18T16:56:57.277Z,12.79
2023-05-18T16:59:24.602Z,12.74
2023-05-18T17:01:52.275Z,12.71
2023-05-18T17:04:19.806Z,12.70
2023-05-18T17:06:47.321Z,12.65
2023-05-18T17:09:16.446Z,12.64
2023-05-18T17:11:44.201Z,12.61
2023-05-18T17:14:11.938Z,12.59
2023-05-18T17:16:40.471Z,12.57
2023-05-18T17:19:08.435Z,12.56
2023-05-18T17:21:36.660Z,12.52
2023-05-18T17:24:04.433Z,12.48
2023-05-18T17:26:33.442Z,12.42
2023-05-18T17:29:00.839Z,12.35
2023-05-18T17:31:28.925Z,12.29
2023-05-18T17:33:56.439Z,12.20
2023-05-18T17:36:25.909Z,12.14
2023-05-18T17:38:53.630Z,12.11
2023-05-18T17:41:23.031Z,12.05
2023-05-18T17:43:50.709Z,11.98
2023-05-18T17:46:18.792Z,11.92
2023-05-18T17:48:46.444Z,11.88
2023-05-18T17:51:15.381Z,11.81
2023-05-18T17:53:43.052Z,11.75
2023-05-18T17:56:11.001Z,11.67
2023-05-18T17:58:39.666Z,11.58
2023-05-18T18:01:10.060Z,11.50
2023-05-18T18:03:38.001Z,11.43
2023-05-18T18:06:05.798Z,11.38
2023-05-18T18:08:33.351Z,11.33
2023-05-18T18:11:00.908Z,11.32
2023-05-18T18:13:28.273Z,11.26
2023-05-18T18:15:55.781Z,11.22
2023-05-18T18:18:23.442Z,11.17
2023-05-18T18:20:51.840Z,11.14
2023-05-18T18:23:19.197Z,11.08
2023-05-18T18:25:46.983Z,11.07
2023-05-18T18:28:14.784Z,11.07
2023-05-18T18:30:44.504Z,11.03
2023-05-18T18:33:12.591Z,11.03
2023-05-18T18:35:40.974Z,11.00
2023-05-18T18:38:09.090Z,10.96
2023-05-18T18:40:36.470Z,10.90
2023-05-18T18:43:03.862Z,10.86
2023-05-18T18:45:32.135Z,10.80
2023-05-18T18:48:00.179Z,10.77
2023-05-18T18:50:28.951Z,10.74
2023-05-18T18:52:57.757Z,10.71
2023-05-18T18:55:25.370Z,10.67
2023-05-18T18:57:53.190Z,10.62
2023-05-18T19:00:21.615Z,10.58
2023-05-18T19:02:48.992Z,10.56
2023-05-18T19:05:21.788Z,10.53
2023-05-18T19:07:55.163Z,10.52
2023-05-18T19:10:23.618Z,10.49
2023-05-18T19:12:51.072Z,10.43
2023-05-18T19:15:18.516Z,10.40
2023-05-18T19:17:46.018Z,10.35
2023-05-18T19:20:13.795Z,10.34
2023-05-18T19:22:41.395Z,10.34
2023-05-18T19:25:09.171Z,10.29
2023-05-18T19:27:36.639Z,10.27
2023-05-18T19:30:05.829Z,10.27
2023-05-18T19:32:33.402Z,10.23
2023-05-18T19:35:01.058Z,10.19
2023-05-18T19:37:28.413Z,10.16
2023-05-18T19:39:55.864Z,10.12
2023-05-18T19:42:23.287Z,10.09
2023-05-18T19:44:50.705Z,10.06
2023-05-18T19:47:17.952Z,10.03
2023-05-18T19:49:45.338Z,10.01
2023-05-18T19:52:12.764Z,9.99
2023-05-18T19:54:40.051Z,9.97
2023-05-18T19:57:07.447Z,9.94
2023-05-18T19:59:34.883Z,9.92
2023-05-18T20:02:05.263Z,9.89
2023-05-18T20:04:33.762Z,9.87
2023-05-18T20:07:01.326Z,9.88
2023-05-18T20:09:31.856Z,9.86
2023-05-18T20:11:59.208Z,9.86
2023-05-18T20:14:27.070Z,9.85
2023-05-18T20:16:56.265Z,9.82
2023-05-18T20:19:24.388Z,9.81
2023-05-18T20:21:51.903Z,9.79
2023-05-18T20:24:19.355Z,9.75
2023-05-18T20:26:48.691Z,9.72
2023-05-18T20:29:17.356Z,9.71
2023-05-18T20:31:44.809Z,9.68
2023-05-18T20:34:12.203Z,9.67
2023-05-18T20:36:39.537Z,9.63
2023-05-18T20:39:07.374Z,9.63
2023-05-18T20:41:40.302Z,9.61
2023-05-18T20:44:11.300Z,9.60
2023-05-18T20:46:42.835Z,9.58
2023-05-18T20:49:12.658Z,9.57
2023-05-18T20:51:39.950Z,9.59
2023-05-18T20:54:07.562Z,9.58
2023-05-18T20:56:36.283Z,9.59
2023-05-18T20:59:06.155Z,9.56
2023-05-18T21:01:39.233Z,9.56
2023-05-18T21:04:07.361Z,9.54
2023-05-18T21:06:40.328Z,9.52
2023-05-18T21:09:08.144Z,9.51
2023-05-18T21:11:35.925Z,9.49
2023-05-18T21:14:03.496Z,9.48
2023-05-18T21:16:31.071Z,9.45
2023-05-18T21:18:58.490Z,9.44
2023-05-18T21:21:25.913Z,9.43
2023-05-18T21:23:53.309Z,9.43
2023-05-18T21:26:21.897Z,9.42
2023-05-18T21:28:49.195Z,9.40
2023-05-18T21:31:16.632Z,9.38
2023-05-18T21:33:47.837Z,9.34
2023-05-18T21:36:35.508Z,9.32
2023-05-18T21:39:06.422Z,9.31
2023-05-18T21:41:35.457Z,9.31
2023-05-18T21:44:03.330Z,9.29
2023-05-18T21:46:30.861Z,9.28
2023-05-18T21:48:58.665Z,9.27
2023-05-18T21:51:26.045Z,9.26
2023-05-18T21:53:53.345Z,9.25
2023-05-18T21:56:21.713Z,9.24
2023-05-18T21:58:48.923Z,9.22
2023-05-18T22:01:19.766Z,9.21
2023-05-18T22:03:48.052Z,9.19
2023-05-18T22:06:16.346Z,9.18
2023-05-18T22:08:44.557Z,9.18
2023-05-18T22:11:12.424Z,9.18
2023-05-18T22:13:40.108Z,9.18
2023-05-18T22:16:07.999Z,9.17
2023-05-18T22:18:35.543Z,9.17
2023-05-18T22:21:03.090Z,9.16
2023-05-18T22:23:30.390Z,9.15
2023-05-18T22:25:57.766Z,9.12
2023-05-18T22:28:25.103Z,9.12
2023-05-18T22:30:53.509Z,9.11
2023-05-18T22:33:23.659Z,9.09
2023-05-18T22:35:50.913Z,9.07
2023-05-18T22:38:20.812Z,9.06
2023-05-18T22:40:54.100Z,9.07
2023-05-18T22:43:22.132Z,9.05
2023-05-18T22:45:49.849Z,9.05
2023-05-18T22:48:17.206Z,9.06
2023-05-18T22:50:45.834Z,9.06
2023-05-18T22:53:14.645Z,9.05
2023-05-18T22:55:42.247Z,9.05
2023-05-18T22:58:09.540Z,9.05
2023-05-18T23:00:36.996Z,9.05
2023-05-18T23:03:06.456Z,9.04
2023-05-18T23:05:34.147Z,9.03
2023-05-18T23:08:02.908Z,9.02
2023-05-18T23:10:30.792Z,9.02
2023-05-18T23:12:58.554Z,9.01
2023-05-18T23:15:26.217Z,9.01
2023-05-18T23:17:56.368Z,9.02
2023-05-18T23:20:23.725Z,9.01
2023-05-18T23:22:51.875Z,9.01
2023-05-18T23:25:19.876Z,9.00
2023-05-18T23:27:47.230Z,8.98
2023-05-18T23:30:14.676Z,8.97
2023-05-18T23:32:42.354Z,8.96
2023-05-18T23:35:13.217Z,8.97
2023-05-18T23:37:42.263Z,8.95
2023-05-18T23:40:12.385Z,8.96
2023-05-18T23:42:40.174Z,8.96
2023-05-18T23:45:08.246Z,8.96
2023-05-18T23:47:37.016Z,8.96
2023-05-18T23:50:05.568Z,8.98
2023-05-18T23:52:34.547Z,8.95
2023-05-18T23:55:04.210Z,8.95
2023-05-18T23:57:31.959Z,8.94
